^^
B2 Weather Station Historical Data
Daily Summary for February 14, 2018 Units:  Metric    English   Both
Daily Weekly Monthly Yearly Custom
  High: Low: Average:
Temperature: 6.7 °C -4.1 °C 2.1 °C
Dew Point: 6.1 °C -5.2 °C 1.1 °C
Humidity: 96% 87% 93%
Wind Speed: 16.7km/h 0km/h 5km/h
Wind Gust: 16.7km/h - -
Wind- - SSW
Pressure: 1026.3 hPa 1011.4 hPa -
Precipitation: 0 mm    
Historical Graphs
 
 
Tabular Data for February 14, 2018
Time Temperature Dew Point Pressure Wind Wind Speed Wind Gust Humidity Rainfall Rate (Hourly) solar
00:04 -0.9 °C -2.4 °C 1026.3 hPa SSW 5.6 km/h 5.6 km/h 90% 0 mm 0.0 W/m2
00:09 -0.9 °C -2.4 °C 1026 hPa South 6.4 km/h 6.4 km/h 90% 0 mm 0.0 W/m2
00:14 -0.9 °C -2.2 °C 1026 hPa South 7.4 km/h 7.4 km/h 91% 0 mm 0.0 W/m2
00:19 -0.9 °C -2.2 °C 1026 hPa South 7.4 km/h 7.4 km/h 91% 0 mm 0.0 W/m2
00:24 -0.9 °C -2.2 °C 1026 hPa SW 9.3 km/h 9.3 km/h 91% 0 mm 0.0 W/m2
00:29 -0.9 °C -2.2 °C 1026 hPa SSW 7.4 km/h 7.4 km/h 91% 0 mm 0.0 W/m2
00:34 -0.9 °C -2.2 °C 1026 hPa South 5.6 km/h 5.6 km/h 91% 0 mm 0.0 W/m2
00:39 -0.8 °C -2.1 °C 1026 hPa SSW 5.6 km/h 5.6 km/h 91% 0 mm 0.0 W/m2
00:44 -0.8 °C -2.1 °C 1026 hPa SSW 5.6 km/h 5.6 km/h 91% 0 mm 0.0 W/m2
00:49 -0.8 °C -2.1 °C 1026 hPa SW 5.6 km/h 5.6 km/h 91% 0 mm 0.0 W/m2
00:54 -0.8 °C -2.1 °C 1025.6 hPa SSW 3.7 km/h 3.7 km/h 91% 0 mm 0.0 W/m2
00:59 -0.9 °C -2.2 °C 1025.6 hPa South 11.3 km/h 11.3 km/h 91% 0 mm 0.0 W/m2
01:04 -0.9 °C -2.2 °C 1025.6 hPa SSW 7.4 km/h 7.4 km/h 91% 0 mm 0.0 W/m2
01:09 -0.9 °C -2.2 °C 1025.6 hPa SSW 7.4 km/h 7.4 km/h 91% 0 mm 0.0 W/m2
01:14 -0.9 °C -2.2 °C 1025.6 hPa SSW 5.6 km/h 5.6 km/h 91% 0 mm 0.0 W/m2
01:19 -1 °C -2.3 °C 1025.3 hPa South 9.3 km/h 9.3 km/h 91% 0 mm 0.0 W/m2
01:24 -1.1 °C -2.3 °C 1025.6 hPa SW 7.4 km/h 7.4 km/h 91% 0 mm 0.0 W/m2
01:29 -1.1 °C -2.3 °C 1025.3 hPa SSW 8 km/h 8 km/h 91% 0 mm 0.0 W/m2
01:34 -1.1 °C -2.3 °C 1025.3 hPa SSW 9.3 km/h 9.3 km/h 91% 0 mm 0.0 W/m2
01:39 -1 °C -2.1 °C 1025.3 hPa SSW 5.6 km/h 5.6 km/h 92% 0 mm 0.0 W/m2
01:44 -0.9 °C -2.1 °C 1025.3 hPa SW 5.6 km/h 5.6 km/h 92% 0 mm 0.0 W/m2
01:49 -0.9 °C -2.2 °C 1025.3 hPa SSW 11.1 km/h 11.1 km/h 91% 0 mm 0.0 W/m2
01:54 -1 °C -2.3 °C 1025.3 hPa SSW 7.4 km/h 7.4 km/h 91% 0 mm 0.0 W/m2
01:59 -0.9 °C -2.2 °C 1025.3 hPa SW 5.6 km/h 5.6 km/h 91% 0 mm 0.0 W/m2
02:04 -0.9 °C -2.1 °C 1025.3 hPa SSW 7.4 km/h 7.4 km/h 92% 0 mm 0.0 W/m2
02:09 -0.9 °C -2 °C 1025.3 hPa SSW 9.3 km/h 9.3 km/h 92% 0 mm 0.0 W/m2
02:14 -0.9 °C -2 °C 1024.9 hPa SSW 5.6 km/h 5.6 km/h 92% 0 mm 0.0 W/m2
02:19 -0.9 °C -2 °C 1024.9 hPa SW 6.4 km/h 6.4 km/h 92% 0 mm 0.0 W/m2
02:24 -0.8 °C -1.9 °C 1024.9 hPa SSW 5.6 km/h 5.6 km/h 92% 0 mm 0.0 W/m2
02:29 -0.9 °C -2.2 °C 1024.9 hPa South 6.4 km/h 6.4 km/h 91% 0 mm 0.0 W/m2
02:34 -0.9 °C -2.2 °C 1024.9 hPa SW 7.4 km/h 7.4 km/h 91% 0 mm 0.0 W/m2
02:39 -0.9 °C -2.2 °C 1024.9 hPa SSW 5.6 km/h 5.6 km/h 91% 0 mm 0.0 W/m2
02:44 -0.9 °C -2.2 °C 1024.9 hPa SSW 5.6 km/h 5.6 km/h 91% 0 mm 0.0 W/m2
02:49 -1 °C -2.1 °C 1024.6 hPa SSW 5.6 km/h 5.6 km/h 92% 0 mm 0.0 W/m2
02:54 -1.1 °C -2.2 °C 1024.6 hPa SSW 7.4 km/h 7.4 km/h 92% 0 mm 0.0 W/m2
02:59 -1.1 °C -2.2 °C 1024.6 hPa SSW 3.7 km/h 3.7 km/h 92% 0 mm 0.0 W/m2
03:04 -1.1 °C -2.2 °C 1024.6 hPa SSW 5.6 km/h 5.6 km/h 92% 0 mm 0.0 W/m2
03:10 -1.2 °C -2.5 °C 1024.3 hPa SSW 1.9 km/h 1.9 km/h 91% 0 mm 0.0 W/m2
03:15 -1.3 °C -2.6 °C 1024.3 hPa Calm     91% 0 mm 0.0 W/m2
03:20 -1.4 °C -2.7 °C 1024.3 hPa Calm     91% 0 mm 0.0 W/m2
03:25 -1.6 °C -2.8 °C 1024.3 hPa Calm     91% 0 mm 0.0 W/m2
03:30 -1.7 °C -2.9 °C 1024.3 hPa Calm     91% 0 mm 0.0 W/m2
03:35 -1.7 °C -3 °C 1023.9 hPa Calm     91% 0 mm 0.0 W/m2
03:40 -1.8 °C -3.1 °C 1023.9 hPa Calm     91% 0 mm 0.0 W/m2
03:45 -1.8 °C -2.9 °C 1023.9 hPa Calm     92% 0 mm 0.0 W/m2
03:50 -1.8 °C -2.9 °C 1023.9 hPa Calm     92% 0 mm 0.0 W/m2
03:55 -1.9 °C -3.2 °C 1023.6 hPa Calm     91% 0 mm 0.0 W/m2
04:00 -2 °C -3.1 °C 1023.6 hPa Calm     92% 0 mm 0.0 W/m2
04:05 -2.1 °C -3.2 °C 1023.6 hPa Calm     92% 0 mm 0.0 W/m2
04:10 -2.1 °C -3.2 °C 1023.6 hPa Calm     92% 0 mm 0.0 W/m2
04:15 -2.1 °C -3.2 °C 1023.6 hPa Calm     92% 0 mm 0.0 W/m2
04:20 -2.1 °C -3.2 °C 1023.6 hPa Calm     92% 0 mm 0.0 W/m2
04:25 -2.2 °C -3.3 °C 1023.6 hPa Calm     92% 0 mm 0.0 W/m2
04:30 -2.4 °C -3.7 °C 1023.6 hPa Calm     91% 0 mm 0.0 W/m2
04:35 -2.8 °C -4.1 °C 1023.6 hPa Calm     91% 0 mm 0.0 W/m2
04:40 -3.3 °C -4.6 °C 1023.2 hPa Calm     91% 0 mm 0.0 W/m2
04:45 -3.6 °C -4.8 °C 1023.6 hPa Calm     91% 0 mm 0.0 W/m2
04:50 -3.9 °C -5.2 °C 1023.6 hPa South 5.6 km/h 5.6 km/h 91% 0 mm 0.0 W/m2
04:55 -4.1 °C -5.2 °C 1023.6 hPa Calm     92% 0 mm 0.0 W/m2
05:00 -3.6 °C -4.5 °C 1023.6 hPa Calm     93% 0 mm 0.0 W/m2
05:05 -3.2 °C -4.1 °C 1023.2 hPa SSW 1.9 km/h 1.9 km/h 94% 0 mm 0.0 W/m2
05:10 -3.1 °C -4 °C 1023.2 hPa SSW 1.9 km/h 1.9 km/h 93% 0 mm 0.0 W/m2
05:15 -2.9 °C -3.7 °C 1023.2 hPa Calm     94% 0 mm 0.0 W/m2
05:20 -2.8 °C -3.6 °C 1023.2 hPa Calm     94% 0 mm 0.0 W/m2
05:25 -2.7 °C -3.6 °C 1023.2 hPa SSW 3.7 km/h 3.7 km/h 94% 0 mm 0.0 W/m2
05:30 -2.7 °C -3.5 °C 1022.9 hPa Calm     94% 0 mm 0.0 W/m2
05:35 -2.8 °C -3.8 °C 1022.9 hPa SSW 5.6 km/h 5.6 km/h 93% 0 mm 0.0 W/m2
05:40 -2.9 °C -3.9 °C 1022.9 hPa SSW 1.9 km/h 1.9 km/h 93% 0 mm 0.0 W/m2
05:45 -2.8 °C -3.6 °C 1022.9 hPa South 3.7 km/h 3.7 km/h 94% 0 mm 0.0 W/m2
05:50 -2.9 °C -3.9 °C 1023.2 hPa South 1.9 km/h   93% 0 mm 0.0 W/m2
05:55 -2.7 °C -3.6 °C 1022.9 hPa South 5.6 km/h 5.6 km/h 94% 0 mm 0.0 W/m2
06:00 -2.6 °C -3.4 °C 1022.9 hPa South 5.6 km/h 5.6 km/h 94% 0 mm 0.0 W/m2
06:05 -2.6 °C -3.4 °C 1022.9 hPa South 9.3 km/h 9.3 km/h 94% 0 mm 0.0 W/m2
06:10 -2.4 °C -3.3 °C 1022.6 hPa SSW 7.4 km/h 7.4 km/h 94% 0 mm 0.0 W/m2
06:15 -2.3 °C -3.2 °C 1022.6 hPa SSW 7.4 km/h 7.4 km/h 94% 0 mm 0.0 W/m2
06:20 -2.3 °C -3.2 °C 1022.9 hPa SSW 5.6 km/h 5.6 km/h 94% 0 mm 0.0 W/m2
06:25 -2.3 °C -3.2 °C 1022.9 hPa SSW 5.6 km/h 5.6 km/h 94% 0 mm 0.0 W/m2
06:30 -2.3 °C -3.2 °C 1022.9 hPa SSW 1.9 km/h 1.9 km/h 94% 0 mm 0.0 W/m2
06:35 -2.3 °C -3.2 °C 1022.9 hPa SW 7.4 km/h 7.4 km/h 94% 0 mm 0.0 W/m2
06:36 -2.3 °C -3.2 °C 1022.9 hPa SSW 7.4 km/h 7.4 km/h 94% 0 mm 0.0 W/m2
06:41 -2.4 °C -3.4 °C 1022.9 hPa SSW 5.6 km/h   93% 0 mm 0.0 W/m2
06:46 -2.4 °C -3.4 °C 1022.9 hPa SSW 5.6 km/h 5.6 km/h 93% 0 mm 0.0 W/m2
06:51 -2.4 °C -3.4 °C 1022.9 hPa SSW 7.4 km/h 7.4 km/h 93% 0 mm 7.0 W/m2
06:56 -2.4 °C -3.4 °C 1022.9 hPa SSW 3.7 km/h 3.7 km/h 93% 0 mm 11.0 W/m2
07:01 -2.4 °C -3.4 °C 1022.9 hPa South 5.6 km/h 5.6 km/h 93% 0 mm 16.0 W/m2
07:06 -2.4 °C -3.4 °C 1022.6 hPa SSW 3.7 km/h 3.7 km/h 93% 0 mm 21.0 W/m2
07:11 -2.4 °C -3.4 °C 1022.6 hPa SSW 5.6 km/h 5.6 km/h 93% 0 mm 23.0 W/m2
07:16 -2.3 °C -3.3 °C 1022.9 hPa SSW 5.6 km/h 5.6 km/h 93% 0 mm 30.0 W/m2
07:21 -2.3 °C -3.1 °C 1022.6 hPa South 5.6 km/h 5.6 km/h 94% 0 mm 37.0 W/m2
08:17 -0.7 °C -1.8 °C 1022.2 hPa SSW 5.6 km/h 5.6 km/h 92% 0 mm 243.0 W/m2
08:22 -0.4 °C -1.7 °C 1021.9 hPa SSW 7.4 km/h 7.4 km/h 91% 0 mm 229.0 W/m2
08:27 -0.3 °C -1.6 °C 1021.9 hPa SSW 5.6 km/h 5.6 km/h 91% 0 mm 265.0 W/m2
08:32 -0.1 °C -1.3 °C 1021.9 hPa South 1.9 km/h 1.9 km/h 91% 0 mm 257.0 W/m2
08:37 0.2 °C -1.3 °C 1021.9 hPa South 5.6 km/h 5.6 km/h 90% 0 mm 272.0 W/m2
08:42 0.4 °C -1.1 °C 1021.9 hPa South 9.3 km/h 9.3 km/h 90% 0 mm 294.0 W/m2
08:47 0.7 °C -0.8 °C 1021.9 hPa South 5.6 km/h 5.6 km/h 90% 0 mm 272.0 W/m2
08:52 0.9 °C -0.7 °C 1021.9 hPa SSW 7.4 km/h 7.4 km/h 89% 0 mm 327.0 W/m2
08:57 1.2 °C -0.4 °C 1021.9 hPa SSW 7.4 km/h 7.4 km/h 89% 0 mm 318.0 W/m2
09:02 1.3 °C -0.3 °C 1021.9 hPa SW 5.6 km/h 5.6 km/h 89% 0 mm 346.0 W/m2
09:07 1.6 °C -0.1 °C 1021.9 hPa SSW 9.3 km/h 9.3 km/h 89% 0 mm 315.0 W/m2
09:12 1.7 °C 0.1 °C 1021.6 hPa South 9.3 km/h 9.3 km/h 89% 0 mm 353.0 W/m2
09:17 2 °C 0.4 °C 1021.6 hPa SW 5.6 km/h 5.6 km/h 89% 0 mm 320.0 W/m2
09:22 2.2 °C 0.6 °C 1021.6 hPa SW 9.3 km/h 9.3 km/h 89% 0 mm 396.0 W/m2
09:27 2.4 °C 0.8 °C 1021.6 hPa SSW 5.6 km/h 5.6 km/h 89% 0 mm 387.0 W/m2
09:32 2.6 °C 1 °C 1021.6 hPa SSW 7.4 km/h 7.4 km/h 89% 0 mm 411.0 W/m2
09:37 2.8 °C 1.2 °C 1021.6 hPa South 7.4 km/h 7.4 km/h 89% 0 mm 441.0 W/m2
09:42 3.2 °C 1.4 °C 1021.6 hPa SW 7.4 km/h 7.4 km/h 88% 0 mm 390.0 W/m2
09:47 3.4 °C 1.6 °C 1021.6 hPa SSW 14.8 km/h 14.8 km/h 88% 0 mm 476.0 W/m2
09:52 3.5 °C 1.6 °C 1021.6 hPa SSW 3.7 km/h 3.7 km/h 87% 0 mm 482.0 W/m2
09:57 3.6 °C 1.7 °C 1021.2 hPa SSW 11.1 km/h 11.1 km/h 87% 0 mm 494.0 W/m2
10:02 3.7 °C 1.7 °C 1021.2 hPa SSW 5.6 km/h 5.6 km/h 87% 0 mm 515.0 W/m2
10:07 3.7 °C 1.7 °C 1021.2 hPa SSW 11.3 km/h 11.3 km/h 87% 0 mm 550.0 W/m2
10:12 3.7 °C 1.8 °C 1021.2 hPa SW 9.3 km/h 9.3 km/h 87% 0 mm 533.0 W/m2
10:17 3.8 °C 1.9 °C 1021.2 hPa SSW 8 km/h 8 km/h 87% 0 mm 392.0 W/m2
10:22 3.9 °C 1.9 °C 1020.9 hPa SSW 8 km/h 8 km/h 87% 0 mm 459.0 W/m2
10:27 3.9 °C 1.9 °C 1020.9 hPa South 7.4 km/h 7.4 km/h 87% 0 mm 494.0 W/m2
10:32 3.9 °C 2 °C 1020.9 hPa SW 5.6 km/h 5.6 km/h 87% 0 mm 345.0 W/m2
10:37 4 °C 2.1 °C 1020.9 hPa SSW 5.6 km/h 5.6 km/h 87% 0 mm 381.0 W/m2
10:42 4.1 °C 2.3 °C 1020.5 hPa SSW 9.3 km/h 9.3 km/h 88% 0 mm 663.0 W/m2
10:47 4.2 °C 2.2 °C 1020.5 hPa South 8 km/h 8 km/h 87% 0 mm 492.0 W/m2
10:52 4.3 °C 2.5 °C 1020.5 hPa SSW 13 km/h 13 km/h 88% 0 mm 740.0 W/m2
10:58 4.4 °C 2.6 °C 1020.5 hPa SSW 13 km/h 13 km/h 88% 0 mm 483.0 W/m2
11:03 4.6 °C 2.8 °C 1020.5 hPa SSW 5.6 km/h 5.6 km/h 88% 0 mm 786.0 W/m2
11:08 4.6 °C 2.6 °C 1020.2 hPa SSW 9.3 km/h 9.3 km/h 87% 0 mm 510.0 W/m2
11:13 4.6 °C 2.6 °C 1020.2 hPa South 9.3 km/h 9.3 km/h 87% 0 mm 703.0 W/m2
11:18 4.6 °C 2.6 °C 1019.9 hPa SSE 5.6 km/h 5.6 km/h 87% 0 mm 510.0 W/m2
11:23 4.4 °C 2.6 °C 1019.9 hPa SW 13 km/h 13 km/h 88% 0 mm 376.0 W/m2
11:28 4.3 °C 2.4 °C 1019.9 hPa SSW 13 km/h 13 km/h 88% 0 mm 295.0 W/m2
11:33 4.2 °C 2.5 °C 1019.9 hPa SW 9.3 km/h 9.3 km/h 89% 0 mm 264.0 W/m2
11:38 4.1 °C 2.4 °C 1019.5 hPa SSW 9.3 km/h 9.3 km/h 89% 0 mm 309.0 W/m2
11:43 4.1 °C 2.4 °C 1019.5 hPa SSW 5.6 km/h 5.6 km/h 89% 0 mm 366.0 W/m2
11:48 4.2 °C 2.7 °C 1019.5 hPa SSW 13 km/h 13 km/h 90% 0 mm 380.0 W/m2
11:53 4.2 °C 2.7 °C 1019.2 hPa SW 16.7 km/h 16.7 km/h 90% 0 mm 366.0 W/m2
11:58 4.3 °C 2.8 °C 1019.2 hPa South 7.4 km/h 7.4 km/h 90% 0 mm 380.0 W/m2
12:03 4.3 °C 2.8 °C 1019.2 hPa SW 9.3 km/h 9.3 km/h 90% 0 mm 360.0 W/m2
12:08 4.4 °C 2.9 °C 1019.2 hPa SSW 9.3 km/h 9.3 km/h 90% 0 mm 320.0 W/m2
12:13 4.5 °C 3 °C 1019.2 hPa WSW 5.6 km/h 5.6 km/h 90% 0 mm 325.0 W/m2
12:18 4.5 °C 3 °C 1018.8 hPa SSW 7.4 km/h 7.4 km/h 90% 0 mm 278.0 W/m2
12:23 4.4 °C 2.9 °C 1018.8 hPa SSW 3.7 km/h 3.7 km/h 90% 0 mm 306.0 W/m2
12:28 4.4 °C 2.9 °C 1018.8 hPa SSW 7.4 km/h 7.4 km/h 90% 0 mm 236.0 W/m2
12:33 4.2 °C 2.9 °C 1018.8 hPa South 14.8 km/h 14.8 km/h 91% 0 mm 211.0 W/m2
12:38 4.1 °C 2.7 °C 1018.8 hPa SSW 3.7 km/h 3.7 km/h 91% 0 mm 232.0 W/m2
12:43 4.1 °C 2.7 °C 1018.5 hPa South 9.3 km/h 9.3 km/h 91% 0 mm 251.0 W/m2
12:48 4 °C 2.8 °C 1018.5 hPa Calm     92% 0 mm 265.0 W/m2
12:53 4 °C 2.8 °C 1018.5 hPa SSW 11.1 km/h 11.1 km/h 92% 0 mm 257.0 W/m2
12:58 4 °C 2.8 °C 1018.2 hPa SSW 9.3 km/h 9.3 km/h 92% 0 mm 276.0 W/m2
13:03 4 °C 2.8 °C 1018.2 hPa SSW 3.7 km/h 3.7 km/h 92% 0 mm 276.0 W/m2
13:08 4.1 °C 2.9 °C 1017.8 hPa SSW 3.7 km/h 3.7 km/h 92% 0 mm 253.0 W/m2
13:13 4.1 °C 2.9 °C 1017.8 hPa SW 11.1 km/h 11.1 km/h 92% 0 mm 213.0 W/m2
13:18 4.1 °C 3 °C 1017.8 hPa SSW 9.3 km/h 9.3 km/h 93% 0 mm 204.0 W/m2
13:23 4.1 °C 3 °C 1017.8 hPa SSW 5.6 km/h 5.6 km/h 93% 0 mm 221.0 W/m2
13:28 4.1 °C 2.9 °C 1017.5 hPa SSW 5.6 km/h 5.6 km/h 92% 0 mm 253.0 W/m2
13:33 4.2 °C 3 °C 1017.5 hPa SSW 7.4 km/h 7.4 km/h 92% 0 mm 287.0 W/m2
13:38 4.2 °C 3 °C 1017.2 hPa SSW 11.1 km/h 11.1 km/h 92% 0 mm 313.0 W/m2
13:43 4.2 °C 3.1 °C 1017.2 hPa South 6.4 km/h 6.4 km/h 92% 0 mm 302.0 W/m2
13:48 4.2 °C 3 °C 1017.2 hPa SW 5.6 km/h 5.6 km/h 92% 0 mm 232.0 W/m2
13:53 4.2 °C 3 °C 1016.8 hPa SW 3.7 km/h 3.7 km/h 92% 0 mm 244.0 W/m2
13:58 4.2 °C 3 °C 1016.8 hPa South 5.6 km/h 5.6 km/h 92% 0 mm 243.0 W/m2
14:03 4.2 °C 3.1 °C 1016.8 hPa SSW 5.6 km/h 5.6 km/h 93% 0 mm 211.0 W/m2
14:08 4.2 °C 3.1 °C 1016.8 hPa Calm   0.2 km/h 93% 0 mm 227.0 W/m2
14:13 4.2 °C 3.1 °C 1016.5 hPa Calm     93% 0 mm 227.0 W/m2
14:18 4.2 °C 3.1 °C 1016.5 hPa South 3.7 km/h 3.7 km/h 93% 0 mm 230.0 W/m2
14:23 4.1 °C 2.9 °C 1016.5 hPa Calm     92% 0 mm 225.0 W/m2
14:28 4 °C 2.8 °C 1016.1 hPa South 5.6 km/h 5.6 km/h 92% 0 mm 200.0 W/m2
14:33 3.8 °C 2.8 °C 1016.1 hPa South 7.4 km/h 7.4 km/h 93% 0 mm 179.0 W/m2
14:38 3.7 °C 2.7 °C 1016.1 hPa South 5.6 km/h 5.6 km/h 93% 0 mm 183.0 W/m2
14:43 3.7 °C 2.7 °C 1016.1 hPa South 5.6 km/h 5.6 km/h 93% 0 mm 172.0 W/m2
14:48 3.7 °C 2.7 °C 1016.1 hPa SSW 5.6 km/h 5.6 km/h 93% 0 mm 165.0 W/m2
14:53 3.7 °C 2.7 °C 1015.8 hPa South 6.4 km/h 6.4 km/h 93% 0 mm 146.0 W/m2
14:58 3.7 °C 2.8 °C 1015.8 hPa SSE 5.6 km/h 5.6 km/h 94% 0 mm 134.0 W/m2
15:03 3.8 °C 2.9 °C 1015.8 hPa South 5.6 km/h 5.6 km/h 94% 0 mm 123.0 W/m2
15:08 3.7 °C 2.8 °C 1015.8 hPa Calm     94% 0 mm 105.0 W/m2
15:13 3.7 °C 2.8 °C 1015.8 hPa South 1.6 km/h 1.6 km/h 94% 0 mm 111.0 W/m2
15:18 3.8 °C 2.9 °C 1015.8 hPa Calm     94% 0 mm 114.0 W/m2
15:23 3.8 °C 2.9 °C 1015.5 hPa South 5.6 km/h   94% 0 mm 121.0 W/m2
15:28 3.7 °C 2.8 °C 1015.5 hPa South 3.7 km/h 3.7 km/h 94% 0 mm 114.0 W/m2
15:33 3.8 °C 2.9 °C 1015.5 hPa SSW 5.6 km/h 5.6 km/h 94% 0 mm 107.0 W/m2
15:38 3.9 °C 3.1 °C 1015.1 hPa South 5.6 km/h 5.6 km/h 94% 0 mm 109.0 W/m2
15:43 4 °C 3.1 °C 1015.5 hPa SSW 5.6 km/h   94% 0 mm 98.0 W/m2
15:48 4.1 °C 3.2 °C 1015.5 hPa SSW 5.6 km/h 5.6 km/h 94% 0 mm 84.0 W/m2
15:53 4.1 °C 3.4 °C 1015.1 hPa SSW 7.4 km/h 7.4 km/h 95% 0 mm 83.0 W/m2
15:58 4.1 °C 3.4 °C 1015.1 hPa South 5.6 km/h 5.6 km/h 95% 0 mm 79.0 W/m2
16:03 4.2 °C 3.4 °C 1015.1 hPa SSW 5.6 km/h 5.6 km/h 95% 0 mm 72.0 W/m2
16:08 4.2 °C 3.4 °C 1015.1 hPa South 7.4 km/h 7.4 km/h 95% 0 mm 74.0 W/m2
16:13 4.2 °C 3.4 °C 1015.1 hPa SSW 5.6 km/h 5.6 km/h 95% 0 mm 63.0 W/m2
16:18 4.1 °C 3.2 °C 1015.1 hPa SSW 5.6 km/h 5.6 km/h 94% 0 mm 42.0 W/m2
16:23 4 °C 3.3 °C 1015.1 hPa Calm     95% 0 mm 39.0 W/m2
16:28 4.1 °C 3.3 °C 1015.1 hPa South 5.6 km/h   95% 0 mm 28.0 W/m2
16:33 3.9 °C 3.2 °C 1014.8 hPa Calm   0.5 km/h 95% 0 mm 25.0 W/m2
16:38 3.8 °C 3.1 °C 1014.8 hPa Calm     95% 0 mm 23.0 W/m2
16:43 3.7 °C 2.9 °C 1014.8 hPa Calm     95% 0 mm 19.0 W/m2
16:48 3.6 °C 2.9 °C 1014.8 hPa SSE 5.6 km/h   95% 0 mm 18.0 W/m2
16:53 3.4 °C 2.5 °C 1014.4 hPa Calm     94% 0 mm 16.0 W/m2
16:58 3.2 °C 2.5 °C 1014.4 hPa Calm     95% 0 mm 12.0 W/m2
17:03 3.1 °C 2.3 °C 1014.4 hPa Calm     95% 0 mm 7.0 W/m2
17:08 2.9 °C 2.2 °C 1014.4 hPa Calm     95% 0 mm 5.0 W/m2
17:13 2.8 °C 2.1 °C 1014.4 hPa Calm     95% 0 mm 0.0 W/m2
17:18 2.7 °C 2 °C 1014.1 hPa Calm     95% 0 mm 0.0 W/m2
17:23 2.6 °C 1.8 °C 1014.1 hPa Calm     95% 0 mm 0.0 W/m2
17:28 2.4 °C 1.7 °C 1013.8 hPa Calm     95% 0 mm 0.0 W/m2
17:33 2.6 °C 1.8 °C 1013.8 hPa Calm     95% 0 mm 0.0 W/m2
17:38 2.7 °C 1.9 °C 1013.8 hPa Calm     95% 0 mm 0.0 W/m2
17:43 2.7 °C 2 °C 1013.8 hPa Calm     95% 0 mm 0.0 W/m2
17:48 2.8 °C 2.1 °C 1013.8 hPa Calm     95% 0 mm 0.0 W/m2
17:53 2.8 °C 2.1 °C 1013.8 hPa Calm     95% 0 mm 0.0 W/m2
17:59 2.8 °C 2.1 °C 1013.8 hPa Calm     95% 0 mm 0.0 W/m2
18:04 2.8 °C 2.1 °C 1013.8 hPa Calm     95% 0 mm 0.0 W/m2
18:09 2.8 °C 2.1 °C 1013.8 hPa Calm     95% 0 mm 0.0 W/m2
18:14 2.8 °C 2.1 °C 1013.8 hPa South 1.9 km/h 1.9 km/h 95% 0 mm 0.0 W/m2
18:19 2.8 °C 2.1 °C 1013.8 hPa Calm     95% 0 mm 0.0 W/m2
18:24 2.7 °C 2 °C 1013.8 hPa Calm     95% 0 mm 0.0 W/m2
18:29 2.7 °C 1.9 °C 1013.4 hPa Calm     95% 0 mm 0.0 W/m2
18:34 2.6 °C 1.9 °C 1013.4 hPa Calm     95% 0 mm 0.0 W/m2
18:39 2.7 °C 1.9 °C 1013.4 hPa Calm     95% 0 mm 0.0 W/m2
18:44 2.8 °C 2.1 °C 1013.4 hPa Calm     95% 0 mm 0.0 W/m2
18:49 2.8 °C 2.1 °C 1013.4 hPa South 5.6 km/h 5.6 km/h 95% 0 mm 0.0 W/m2
18:54 3.1 °C 2.3 °C 1013.4 hPa Calm     95% 0 mm 0.0 W/m2
18:59 3.6 °C 2.8 °C 1013.4 hPa Calm     95% 0 mm 0.0 W/m2
19:04 4.1 °C 3.4 °C 1013.4 hPa Calm     95% 0 mm 0.0 W/m2
19:09 4.5 °C 3.9 °C 1013.4 hPa Calm     96% 0 mm 0.0 W/m2
19:14 4.7 °C 4 °C 1013.4 hPa South 3.7 km/h 3.7 km/h 95% 0 mm 0.0 W/m2
19:19 4.8 °C 4.2 °C 1013.1 hPa SSW 3.2 km/h 3.2 km/h 96% 0 mm 0.0 W/m2
19:24 4.9 °C 4.3 °C 1013.1 hPa SSW 16.7 km/h 16.7 km/h 96% 0 mm 0.0 W/m2
19:29 5.1 °C 4.3 °C 1013.1 hPa South 7.4 km/h 7.4 km/h 95% 0 mm 0.0 W/m2
19:34 5.1 °C 4.3 °C 1013.1 hPa SSW 9.3 km/h 9.3 km/h 95% 0 mm 0.0 W/m2
19:39 5 °C 4.3 °C 1013.1 hPa South 7.4 km/h 7.4 km/h 95% 0 mm 0.0 W/m2
19:44 4.9 °C 4.3 °C 1013.1 hPa SSW 3.7 km/h 3.7 km/h 96% 0 mm 0.0 W/m2
19:49 4.8 °C 4.1 °C 1013.1 hPa Calm     95% 0 mm 0.0 W/m2
19:54 4.7 °C 3.9 °C 1013.1 hPa South 5.6 km/h 5.6 km/h 95% 0 mm 0.0 W/m2
19:59 4.7 °C 4 °C 1013.1 hPa SSW 6.4 km/h 6.4 km/h 95% 0 mm 0.0 W/m2
20:04 4.7 °C 4 °C 1012.8 hPa SSW 7.4 km/h 7.4 km/h 95% 0 mm 0.0 W/m2
20:09 4.8 °C 4.1 °C 1012.8 hPa SSW 9.3 km/h 9.3 km/h 95% 0 mm 0.0 W/m2
20:14 4.7 °C 4 °C 1012.8 hPa SSW 9.3 km/h 9.3 km/h 95% 0 mm 0.0 W/m2
20:19 4.7 °C 3.9 °C 1012.8 hPa SW 7.4 km/h 7.4 km/h 95% 0 mm 0.0 W/m2
20:24 4.6 °C 3.9 °C 1012.8 hPa SSW 4.8 km/h 4.8 km/h 95% 0 mm 0.0 W/m2
20:29 4.5 °C 3.8 °C 1012.4 hPa Calm     95% 0 mm 0.0 W/m2
20:34 4.3 °C 3.6 °C 1012.4 hPa Calm     95% 0 mm 0.0 W/m2
20:39 4.2 °C 3.4 °C 1012.4 hPa Calm     95% 0 mm 0.0 W/m2
20:44 4.1 °C 3.4 °C 1012.4 hPa Calm     95% 0 mm 0.0 W/m2
20:50 4.2 °C 3.5 °C 1012.1 hPa SSW 3.7 km/h   95% 0 mm 0.0 W/m2
20:55 4.3 °C 3.6 °C 1012.1 hPa Calm     95% 0 mm 0.0 W/m2
21:00 4.4 °C 3.9 °C 1012.1 hPa Calm     96% 0 mm 0.0 W/m2
21:05 4.5 °C 3.9 °C 1012.1 hPa Calm     96% 0 mm 0.0 W/m2
21:10 4.3 °C 3.6 °C 1012.1 hPa Calm     95% 0 mm 0.0 W/m2
21:15 4 °C 3.3 °C 1012.1 hPa Calm     95% 0 mm 0.0 W/m2
21:20 3.9 °C 3.2 °C 1012.1 hPa Calm     95% 0 mm 0.0 W/m2
21:25 4.4 °C 3.7 °C 1012.1 hPa SSW 3.7 km/h 3.7 km/h 95% 0 mm 0.0 W/m2
21:30 5.3 °C 4.7 °C 1012.1 hPa SSW 5.6 km/h 5.6 km/h 96% 0 mm 0.0 W/m2
21:35 5.6 °C 4.9 °C 1012.1 hPa Calm     96% 0 mm 0.0 W/m2
21:40 5.6 °C 5 °C 1011.7 hPa Calm     96% 0 mm 0.0 W/m2
21:45 5.6 °C 5 °C 1012.1 hPa SW 5.6 km/h 5.6 km/h 96% 0 mm 0.0 W/m2
21:50 5.7 °C 5.1 °C 1012.1 hPa SSW 3.7 km/h 3.7 km/h 96% 0 mm 0.0 W/m2
21:55 5.7 °C 5.1 °C 1012.1 hPa Calm     96% 0 mm 0.0 W/m2
22:00 5.7 °C 5.1 °C 1012.1 hPa Calm     96% 0 mm 0.0 W/m2
22:05 5.6 °C 4.9 °C 1012.1 hPa Calm     96% 0 mm 0.0 W/m2
22:10 5.5 °C 4.9 °C 1012.1 hPa Calm     96% 0 mm 0.0 W/m2
22:15 5.4 °C 4.7 °C 1012.1 hPa Calm     95% 0 mm 0.0 W/m2
22:20 5.3 °C 4.6 °C 1011.7 hPa South 3.7 km/h 3.7 km/h 95% 0 mm 0.0 W/m2
22:25 5 °C 4.3 °C 1011.7 hPa South 7.4 km/h 7.4 km/h 95% 0 mm 0.0 W/m2
22:30 4.9 °C 4.2 °C 1011.7 hPa SSW 5.6 km/h 5.6 km/h 95% 0 mm 0.0 W/m2
22:35 4.9 °C 4.2 °C 1011.7 hPa Calm     95% 0 mm 0.0 W/m2
22:40 5.1 °C 4.3 °C 1011.7 hPa Calm     95% 0 mm 0.0 W/m2
22:45 5.2 °C 4.6 °C 1011.7 hPa SW 5.6 km/h 5.6 km/h 96% 0 mm 0.0 W/m2
22:50 5.4 °C 4.7 °C 1011.7 hPa SSW 9.3 km/h 9.3 km/h 95% 0 mm 0.0 W/m2
22:55 5.5 °C 4.9 °C 1011.7 hPa South 7.4 km/h 7.4 km/h 96% 0 mm 0.0 W/m2
23:00 5.7 °C 5.1 °C 1011.7 hPa SSW 9.3 km/h 9.3 km/h 96% 0 mm 0.0 W/m2
23:05 5.8 °C 5.2 °C 1011.4 hPa SSW 11.1 km/h 11.1 km/h 96% 0 mm 0.0 W/m2
23:10 5.9 °C 5.3 °C 1011.4 hPa SSW 11.1 km/h 11.1 km/h 96% 0 mm 0.0 W/m2
23:15 6.1 °C 5.4 °C 1011.4 hPa SW 11.3 km/h 11.3 km/h 96% 0 mm 0.0 W/m2
23:20 6.3 °C 5.7 °C 1011.4 hPa SSW 11.1 km/h 11.1 km/h 96% 0 mm 0.0 W/m2
23:25 6.4 °C 5.8 °C 1011.4 hPa South 13 km/h 13 km/h 96% 0 mm 0.0 W/m2
23:30 6.5 °C 5.9 °C 1011.4 hPa SSW 9.3 km/h 9.3 km/h 96% 0 mm 0.0 W/m2
23:35 6.7 °C 6.1 °C 1011.7 hPa SW 7.4 km/h 7.4 km/h 96% 0 mm 0.0 W/m2
23:40 6.6 °C 6 °C 1011.7 hPa SSW 11.1 km/h 11.1 km/h 96% 0 mm 0.0 W/m2
23:45 6.4 °C 5.8 °C 1011.7 hPa South 8 km/h 8 km/h 96% 0 mm 0.0 W/m2
23:50 6.3 °C 5.7 °C 1011.7 hPa WSW 16.7 km/h 16.7 km/h 96% 0 mm 0.0 W/m2
23:55 6.2 °C 5.6 °C 1011.7 hPa WSW 9.3 km/h 9.3 km/h 96% 0 mm 0.0 W/m2
Bourbonnais, Illinois, USA
Compliments of Weather Underground - 4 mb